createdAt,value
2023-04-20T00:01:33.995Z,14.10
2023-04-20T00:04:19.147Z,12.32
2023-04-20T00:07:04.512Z,11.90
2023-04-20T00:09:49.925Z,12.38
2023-04-20T00:12:35.840Z,11.75
2023-04-20T00:15:21.447Z,11.93
2023-04-20T00:18:07.065Z,12.65
2023-04-20T00:20:52.341Z,11.68
2023-04-20T00:23:37.884Z,11.48
2023-04-20T00:26:23.145Z,10.93
2023-04-20T00:29:14.002Z,10.07
2023-04-20T00:31:59.391Z,12.98
2023-04-20T00:34:44.743Z,11.70
2023-04-20T00:37:30.054Z,11.88
2023-04-20T00:40:15.824Z,12.57
2023-04-20T00:43:11.314Z,13.15
2023-04-20T00:45:56.810Z,13.27
2023-04-20T00:48:42.115Z,13.98
2023-04-20T00:51:29.406Z,11.98
2023-04-20T00:54:16.183Z,12.57
2023-04-20T00:57:02.625Z,9.82
2023-04-20T00:59:48.392Z,12.45
2023-04-20T01:02:33.933Z,10.55
2023-04-20T01:05:21.169Z,10.95
2023-04-20T01:08:06.931Z,9.65
2023-04-20T01:10:56.100Z,11.00
2023-04-20T01:13:42.217Z,11.43
2023-04-20T01:16:27.909Z,11.05
2023-04-20T01:19:13.561Z,10.13
2023-04-20T01:21:59.123Z,10.40
2023-04-20T01:24:47.842Z,10.75
2023-04-20T01:27:33.329Z,10.57
2023-04-20T01:30:19.727Z,12.75
2023-04-20T01:33:05.135Z,11.02
2023-04-20T01:35:52.831Z,12.63
2023-04-20T01:38:37.998Z,10.35
2023-04-20T01:41:23.443Z,12.50
2023-04-20T01:44:08.546Z,15.23
2023-04-20T01:46:54.029Z,12.15
2023-04-20T01:49:39.526Z,12.88
2023-04-20T01:52:24.798Z,15.48
2023-04-20T01:55:11.579Z,15.32
2023-04-20T01:57:59.925Z,13.10
2023-04-20T02:00:45.459Z,16.55
2023-04-20T02:03:31.192Z,14.90
2023-04-20T02:06:16.480Z,17.02
2023-04-20T02:09:02.049Z,14.38
2023-04-20T02:11:47.185Z,15.18
2023-04-20T02:14:32.627Z,14.15
2023-04-20T02:17:18.333Z,14.05
2023-04-20T02:20:09.213Z,18.60
2023-04-20T02:22:54.500Z,18.17
2023-04-20T02:25:39.878Z,18.08
2023-04-20T02:28:25.367Z,22.40
2023-04-20T02:31:11.048Z,15.75
2023-04-20T02:33:56.312Z,17.95
2023-04-20T02:36:41.765Z,19.35
2023-04-20T02:39:29.957Z,18.10
2023-04-20T02:42:15.592Z,15.18
2023-04-20T02:45:01.916Z,17.70
2023-04-20T02:47:47.642Z,20.58
2023-04-20T02:50:35.025Z,18.60
2023-04-20T02:53:27.879Z,21.00
2023-04-20T02:56:27.166Z,19.10
2023-04-20T02:59:15.403Z,19.60
2023-04-20T03:02:11.380Z,20.40
2023-04-20T03:04:57.967Z,19.77
2023-04-20T03:07:43.449Z,20.52
2023-04-20T03:10:31.064Z,21.25
2023-04-20T03:13:23.149Z,22.13
2023-04-20T03:16:14.960Z,25.42
2023-04-20T03:19:04.582Z,20.17
2023-04-20T03:21:50.124Z,21.88
2023-04-20T03:24:36.201Z,22.35
2023-04-20T03:27:30.924Z,26.35
2023-04-20T03:30:28.829Z,22.20
2023-04-20T03:33:22.418Z,22.95
2023-04-20T03:36:09.269Z,22.48
2023-04-20T03:38:55.625Z,24.52
2023-04-20T03:41:41.086Z,24.60
2023-04-20T03:44:26.509Z,27.75
2023-04-20T03:47:12.117Z,23.63
2023-04-20T03:49:58.025Z,21.60
2023-04-20T03:52:43.410Z,24.10
2023-04-20T03:55:29.932Z,23.90
2023-04-20T03:58:21.649Z,25.92
2023-04-20T04:01:20.358Z,24.25
2023-04-20T04:04:07.723Z,23.40
2023-04-20T04:06:53.375Z,24.35
2023-04-20T04:09:38.739Z,26.45
2023-04-20T04:12:25.844Z,24.23
2023-04-20T04:15:12.294Z,22.60
2023-04-20T04:18:05.701Z,22.27
2023-04-20T04:20:52.669Z,24.02
2023-04-20T04:23:40.000Z,23.98
2023-04-20T04:26:39.682Z,24.17
2023-04-20T04:29:28.000Z,23.15
2023-04-20T04:32:18.093Z,25.42
2023-04-20T04:35:06.459Z,24.67
2023-04-20T04:37:55.191Z,23.13
2023-04-20T04:40:41.677Z,26.17
2023-04-20T04:43:27.872Z,25.10
2023-04-20T04:46:25.374Z,28.30
2023-04-20T04:49:11.464Z,28.02
2023-04-20T04:51:56.387Z,27.40
2023-04-20T04:54:41.811Z,31.05
2023-04-20T04:57:27.366Z,28.77
2023-04-20T05:00:15.829Z,30.95
2023-04-20T05:03:01.391Z,27.75
2023-04-20T05:05:46.850Z,27.83
2023-04-20T05:08:32.355Z,27.52
2023-04-20T05:11:17.715Z,26.98
2023-04-20T05:14:03.487Z,26.30
2023-04-20T05:16:48.705Z,28.25
2023-04-20T05:19:34.166Z,29.50
2023-04-20T05:22:19.362Z,25.45
2023-04-20T05:25:07.267Z,24.95
2023-04-20T05:27:52.383Z,29.23
2023-04-20T05:30:37.965Z,28.58
2023-04-20T05:33:23.273Z,26.38
2023-04-20T05:36:09.781Z,31.17
2023-04-20T05:38:55.469Z,29.10
2023-04-20T05:41:40.533Z,26.55
2023-04-20T05:44:25.659Z,29.95
2023-04-20T05:47:11.185Z,25.50
2023-04-20T05:49:56.294Z,27.88
2023-04-20T05:52:41.620Z,31.70
2023-04-20T05:55:27.036Z,26.73
2023-04-20T05:58:12.435Z,25.83
2023-04-20T06:00:59.155Z,29.80
2023-04-20T06:03:44.645Z,28.40
2023-04-20T06:06:30.708Z,29.05
2023-04-20T06:09:16.213Z,28.55
2023-04-20T06:12:02.621Z,28.67
2023-04-20T06:14:48.199Z,27.80
2023-04-20T06:17:37.709Z,30.70
2023-04-20T06:20:23.785Z,29.67
2023-04-20T06:23:09.378Z,30.10
2023-04-20T06:25:54.685Z,24.15
2023-04-20T06:28:40.689Z,30.70
2023-04-20T06:31:26.309Z,28.70
2023-04-20T06:34:12.319Z,27.92
2023-04-20T06:36:57.549Z,29.60
2023-04-20T06:39:42.848Z,25.45
2023-04-20T06:42:28.267Z,27.17
2023-04-20T06:45:15.797Z,26.77
2023-04-20T06:48:01.494Z,27.38
2023-04-20T06:50:50.571Z,30.70
2023-04-20T06:53:35.752Z,27.85
2023-04-20T06:56:22.918Z,28.95
2023-04-20T06:59:08.209Z,27.27
2023-04-20T07:01:53.825Z,28.40
2023-04-20T07:04:38.893Z,24.55
2023-04-20T07:07:24.278Z,25.08
2023-04-20T07:10:11.711Z,26.90
2023-04-20T07:12:57.082Z,26.30
2023-04-20T07:15:45.052Z,26.35
2023-04-20T07:18:31.935Z,27.15
2023-04-20T07:21:19.956Z,28.27
2023-04-20T07:24:05.864Z,28.70
2023-04-20T07:26:51.334Z,32.15
2023-04-20T07:29:36.471Z,29.02
2023-04-20T07:32:22.359Z,26.00
2023-04-20T07:35:08.085Z,26.90
2023-04-20T07:37:53.645Z,26.55
2023-04-20T07:40:38.765Z,27.02
2023-04-20T07:43:24.247Z,25.20
2023-04-20T07:46:09.737Z,26.17
2023-04-20T07:48:55.227Z,24.85
2023-04-20T07:51:43.479Z,24.42
2023-04-20T07:54:28.564Z,27.63
2023-04-20T07:57:14.054Z,24.45
2023-04-20T07:59:59.185Z,26.48
2023-04-20T08:02:44.530Z,24.33
2023-04-20T08:05:30.060Z,26.85
2023-04-20T08:08:17.768Z,24.70
2023-04-20T08:11:02.982Z,22.15
2023-04-20T08:13:48.293Z,22.88
2023-04-20T08:16:33.564Z,24.40
2023-04-20T08:19:19.077Z,19.90
2023-04-20T08:22:05.987Z,24.15
2023-04-20T08:24:51.128Z,23.08
2023-04-20T08:27:36.686Z,21.08
2023-04-20T08:30:24.545Z,23.42
2023-04-20T08:33:10.509Z,25.73
2023-04-20T08:35:56.258Z,23.98
2023-04-20T08:38:41.810Z,23.95
2023-04-20T08:41:26.999Z,26.65
2023-04-20T08:44:12.609Z,26.67
2023-04-20T08:46:59.924Z,24.98
2023-04-20T08:49:46.281Z,27.13
2023-04-20T08:52:32.542Z,27.77
2023-04-20T08:55:18.641Z,25.00
2023-04-20T08:58:04.121Z,25.58
2023-04-20T09:00:49.739Z,29.92
2023-04-20T09:03:40.977Z,28.23
2023-04-20T09:06:26.821Z,29.23
2023-04-20T09:09:12.142Z,29.92
2023-04-20T09:12:06.771Z,28.83
2023-04-20T09:14:52.395Z,24.33
2023-04-20T09:17:41.056Z,27.25
2023-04-20T09:20:31.539Z,28.50
2023-04-20T09:23:18.492Z,29.73
2023-04-20T09:26:04.086Z,35.63
2023-04-20T09:28:49.477Z,30.58
2023-04-20T09:31:36.598Z,27.55
2023-04-20T09:34:23.962Z,29.70
2023-04-20T09:37:11.280Z,25.30
2023-04-20T09:39:59.996Z,27.83
2023-04-20T09:42:47.253Z,27.90
2023-04-20T09:45:32.984Z,25.80
2023-04-20T09:48:20.737Z,24.45
2023-04-20T09:51:07.006Z,22.58
2023-04-20T09:53:54.609Z,22.85
2023-04-20T09:56:41.155Z,24.08
2023-04-20T09:59:27.619Z,21.23
2023-04-20T10:02:14.124Z,21.95
2023-04-20T10:04:59.802Z,20.00
2023-04-20T10:07:45.112Z,22.75
2023-04-20T10:10:31.005Z,22.02
2023-04-20T10:13:19.236Z,23.60
2023-04-20T10:16:04.826Z,22.13
2023-04-20T10:19:05.691Z,20.80
2023-04-20T10:21:51.864Z,19.80
2023-04-20T10:24:40.496Z,20.70
2023-04-20T10:27:26.130Z,17.50
2023-04-20T10:30:11.819Z,17.48
2023-04-20T10:33:11.937Z,20.75
2023-04-20T10:35:58.929Z,17.95
2023-04-20T10:38:44.129Z,18.52
2023-04-20T10:41:29.692Z,19.83
2023-04-20T10:44:15.516Z,20.58
2023-04-20T10:47:01.399Z,19.98
2023-04-20T10:49:46.922Z,18.05
2023-04-20T10:52:36.498Z,19.33
2023-04-20T10:55:24.450Z,19.98
2023-04-20T10:58:09.745Z,18.40
2023-04-20T11:01:02.095Z,20.45
2023-04-20T11:03:52.146Z,22.15
2023-04-20T11:09:28.513Z,21.75
2023-04-20T11:12:14.715Z,26.20
2023-04-20T11:15:02.679Z,21.60
2023-04-20T11:17:48.225Z,20.23
2023-04-20T11:20:33.870Z,20.25
2023-04-20T11:23:20.797Z,22.33
2023-04-20T11:26:06.799Z,25.35
2023-04-20T11:28:55.974Z,22.23
2023-04-20T11:31:42.247Z,18.00
2023-04-20T11:34:27.990Z,22.70
2023-04-20T11:37:13.756Z,21.48
2023-04-20T11:40:06.443Z,16.83
2023-04-20T11:42:51.923Z,20.13
2023-04-20T11:45:37.187Z,17.98
2023-04-20T11:48:22.623Z,21.55
2023-04-20T11:51:07.972Z,18.63
2023-04-20T11:53:53.177Z,21.35
2023-04-20T11:56:39.466Z,22.23
2023-04-20T11:59:25.273Z,18.95
2023-04-20T12:02:10.775Z,24.08
2023-04-20T12:05:02.071Z,17.75
2023-04-20T12:07:47.501Z,23.55
2023-04-20T12:10:32.711Z,19.30
2023-04-20T12:13:18.052Z,22.48
2023-04-20T12:16:03.558Z,19.13
2023-04-20T12:18:48.816Z,20.98
2023-04-20T12:21:34.092Z,20.95
2023-04-20T12:24:19.476Z,19.75
2023-04-20T12:27:06.010Z,22.98
2023-04-20T12:29:51.869Z,24.33
2023-04-20T12:32:37.165Z,24.02
2023-04-20T12:35:22.774Z,24.33
2023-04-20T12:38:08.381Z,20.25
2023-04-20T12:40:53.770Z,21.52
2023-04-20T12:43:39.227Z,23.60
2023-04-20T12:46:25.522Z,24.65
2023-04-20T12:49:10.986Z,24.25
2023-04-20T12:51:56.285Z,21.13
2023-04-20T12:54:43.882Z,21.45
2023-04-20T12:57:29.559Z,20.02
2023-04-20T13:00:15.237Z,18.73
2023-04-20T13:03:00.703Z,19.38
2023-04-20T13:05:46.280Z,18.88
2023-04-20T13:08:31.754Z,21.80
2023-04-20T13:11:17.977Z,26.60
2023-04-20T13:14:03.607Z,22.75
2023-04-20T13:16:54.521Z,22.02
2023-04-20T13:19:40.827Z,18.80
2023-04-20T13:22:26.209Z,19.05
2023-04-20T13:25:11.995Z,19.45
2023-04-20T13:27:57.692Z,20.92
2023-04-20T13:30:43.832Z,21.45
2023-04-20T13:33:29.318Z,25.55
2023-04-20T13:36:14.948Z,24.67
2023-04-20T13:39:01.692Z,20.25
2023-04-20T13:41:49.196Z,18.80
2023-04-20T13:44:35.343Z,20.52
2023-04-20T13:47:21.206Z,22.55
2023-04-20T13:50:07.229Z,23.00
2023-04-20T13:52:52.393Z,24.40
2023-04-20T13:55:37.573Z,18.95
2023-04-20T13:58:22.956Z,19.10
2023-04-20T14:01:12.685Z,22.77
2023-04-20T14:03:58.628Z,18.02
2023-04-20T14:06:44.200Z,19.63
2023-04-20T14:09:31.181Z,20.33
2023-04-20T14:12:16.700Z,22.38
2023-04-20T14:15:02.262Z,20.42
2023-04-20T14:17:47.381Z,20.70
2023-04-20T14:20:32.664Z,16.83
2023-04-20T14:23:19.406Z,22.60
2023-04-20T14:26:04.959Z,22.85
2023-04-20T14:28:52.948Z,15.57
2023-04-20T14:31:38.581Z,18.90
2023-04-20T14:34:26.540Z,16.80
2023-04-20T14:37:11.928Z,19.08
2023-04-20T14:39:57.368Z,16.63
2023-04-20T14:42:42.744Z,18.27
2023-04-20T14:45:28.728Z,16.92
2023-04-20T14:48:13.881Z,17.92
2023-04-20T14:50:59.203Z,22.63
2023-04-20T14:53:44.264Z,16.42
2023-04-20T14:56:29.704Z,18.42
2023-04-20T14:59:15.012Z,13.57
2023-04-20T15:02:02.722Z,14.30
2023-04-20T15:04:49.115Z,13.13
2023-04-20T15:07:34.485Z,17.50
2023-04-20T15:10:20.549Z,15.75
2023-04-20T15:13:06.620Z,18.35
2023-04-20T15:15:54.825Z,14.52
2023-04-20T15:18:40.514Z,16.65
2023-04-20T15:21:25.885Z,11.00
2023-04-20T15:24:11.163Z,10.85
2023-04-20T15:26:56.384Z,12.95
2023-04-20T15:29:41.716Z,14.20
2023-04-20T15:32:27.376Z,13.02
2023-04-20T15:35:12.775Z,12.38
2023-04-20T15:37:58.226Z,11.52
2023-04-20T15:40:43.490Z,10.48
2023-04-20T15:43:29.290Z,13.50
2023-04-20T15:46:17.598Z,13.15
2023-04-20T15:49:02.827Z,11.88
2023-04-20T15:51:51.024Z,11.00
2023-04-20T15:54:37.300Z,12.90
2023-04-20T15:57:22.645Z,11.88
2023-04-20T16:00:09.715Z,11.05
2023-04-20T16:03:01.359Z,14.15
2023-04-20T16:05:47.076Z,11.90
2023-04-20T16:08:32.619Z,12.35
2023-04-20T16:11:17.649Z,12.25
2023-04-20T16:14:05.255Z,11.88
2023-04-20T16:16:50.812Z,13.43
2023-04-20T16:19:36.307Z,11.55
2023-04-20T16:22:21.603Z,12.95
2023-04-20T16:25:07.268Z,12.38
2023-04-20T16:27:52.437Z,10.60
2023-04-20T16:30:37.668Z,11.95
2023-04-20T16:33:23.028Z,9.27
2023-04-20T16:36:12.248Z,10.60
2023-04-20T16:38:57.693Z,13.40
2023-04-20T16:41:43.071Z,14.88
2023-04-20T16:44:28.292Z,13.38
2023-04-20T16:47:13.335Z,10.88
2023-04-20T16:49:59.121Z,12.02
2023-04-20T16:52:44.258Z,11.32
2023-04-20T16:55:29.679Z,14.07
2023-04-20T16:58:14.927Z,11.35
2023-04-20T17:01:00.407Z,14.02
2023-04-20T17:03:46.101Z,15.35
2023-04-20T17:06:31.554Z,10.63
2023-04-20T17:09:17.096Z,9.60
2023-04-20T17:12:02.412Z,11.45
2023-04-20T17:14:47.508Z,14.45
2023-04-20T17:17:34.087Z,10.73
2023-04-20T17:20:19.846Z,14.38
2023-04-20T17:23:05.383Z,12.77
2023-04-20T17:25:51.324Z,14.32
2023-04-20T17:28:41.924Z,14.30
2023-04-20T17:31:27.308Z,15.93
2023-04-20T17:34:12.699Z,15.15
2023-04-20T17:36:57.735Z,13.73
2023-04-20T17:39:43.591Z,15.77
2023-04-20T17:42:28.970Z,14.18
2023-04-20T17:45:14.359Z,13.93
2023-04-20T17:47:59.562Z,12.02
2023-04-20T17:50:50.959Z,14.38
2023-04-20T17:53:36.214Z,11.88
2023-04-20T17:56:21.721Z,14.70
2023-04-20T17:59:07.249Z,11.88
2023-04-20T18:01:52.469Z,12.07
2023-04-20T18:04:38.858Z,12.68
2023-04-20T18:07:24.272Z,14.80
2023-04-20T18:10:10.328Z,13.77
2023-04-20T18:12:55.510Z,13.15
2023-04-20T18:15:40.845Z,12.95
2023-04-20T18:18:26.069Z,11.45
2023-04-20T18:21:13.978Z,14.13
2023-04-20T18:23:59.310Z,13.07
2023-04-20T18:26:44.765Z,14.40
2023-04-20T18:29:30.327Z,12.73
2023-04-20T18:32:17.913Z,16.30
2023-04-20T18:35:06.488Z,16.90
2023-04-20T18:37:53.386Z,14.65
2023-04-20T18:40:39.039Z,13.00
2023-04-20T18:43:24.301Z,16.70
2023-04-20T18:46:10.021Z,16.38
2023-04-20T18:48:55.635Z,15.38
2023-04-20T18:51:43.744Z,18.27
2023-04-20T18:54:29.113Z,13.13
2023-04-20T18:57:14.605Z,14.95
2023-04-20T18:59:59.771Z,21.15
2023-04-20T19:02:45.058Z,19.00
2023-04-20T19:05:30.794Z,12.90
2023-04-20T19:08:18.536Z,13.27
2023-04-20T19:11:04.112Z,17.15
2023-04-20T19:13:49.296Z,15.45
2023-04-20T19:16:37.202Z,14.85
2023-04-20T19:19:24.461Z,13.63
2023-04-20T19:22:09.544Z,14.25
2023-04-20T19:24:57.763Z,13.10
2023-04-20T19:27:43.242Z,13.77
2023-04-20T19:30:28.461Z,11.48
2023-04-20T19:33:13.952Z,12.35
2023-04-20T19:35:59.336Z,14.35
2023-04-20T19:38:45.683Z,14.63
2023-04-20T19:41:35.014Z,18.60
2023-04-20T19:44:20.646Z,17.40
2023-04-20T19:47:06.890Z,10.93
2023-04-20T19:49:52.497Z,12.60
2023-04-20T19:52:37.657Z,15.40
2023-04-20T19:55:22.917Z,13.65
2023-04-20T19:58:10.520Z,13.13
2023-04-20T20:00:56.245Z,16.25
2023-04-20T20:03:42.897Z,14.07
2023-04-20T20:06:28.455Z,14.40
2023-04-20T20:09:13.592Z,13.57
2023-04-20T20:12:01.057Z,14.98
2023-04-20T20:14:46.084Z,12.80
2023-04-20T20:17:31.648Z,10.80
2023-04-20T20:20:17.407Z,11.82
2023-04-20T20:23:02.792Z,10.25
2023-04-20T20:25:47.994Z,13.52
2023-04-20T20:28:33.492Z,10.82
2023-04-20T20:31:18.829Z,11.25
2023-04-20T20:34:03.926Z,12.15
2023-04-20T20:36:53.135Z,13.98
2023-04-20T20:39:38.487Z,13.75
2023-04-20T20:42:25.569Z,21.25
2023-04-20T20:45:12.344Z,14.05
2023-04-20T20:47:58.247Z,12.65
2023-04-20T20:50:43.539Z,13.45
2023-04-20T20:53:28.585Z,17.23
2023-04-20T20:56:14.049Z,14.90
2023-04-20T20:58:59.570Z,12.95
2023-04-20T21:01:44.948Z,11.65
2023-04-20T21:04:30.483Z,12.35
2023-04-20T21:07:15.834Z,11.70
2023-04-20T21:10:00.988Z,13.60
2023-04-20T21:12:46.113Z,18.00
2023-04-20T21:15:31.364Z,14.23
2023-04-20T21:18:16.821Z,13.80
2023-04-20T21:21:02.183Z,16.27
2023-04-20T21:23:48.691Z,13.23
2023-04-20T21:26:37.161Z,14.27
2023-04-20T21:29:22.665Z,12.65
2023-04-20T21:32:09.650Z,19.80
2023-04-20T21:34:54.702Z,19.70
2023-04-20T21:37:40.327Z,13.25
2023-04-20T21:40:26.832Z,19.40
2023-04-20T21:43:12.224Z,20.92
2023-04-20T21:45:57.480Z,15.70
2023-04-20T21:48:43.037Z,19.27
2023-04-20T21:51:28.353Z,19.17
2023-04-20T21:54:13.795Z,12.27
2023-04-20T21:56:59.549Z,14.77
2023-04-20T21:59:44.772Z,18.65
2023-04-20T22:02:30.454Z,18.20
2023-04-20T22:05:15.479Z,16.48
2023-04-20T22:08:01.198Z,11.82
2023-04-20T22:10:46.464Z,12.40
2023-04-20T22:13:31.630Z,20.08
2023-04-20T22:16:17.975Z,16.52
2023-04-20T22:19:04.203Z,12.73
2023-04-20T22:21:49.480Z,14.55
2023-04-20T22:24:34.937Z,16.98
2023-04-20T22:27:20.029Z,11.90
2023-04-20T22:30:06.550Z,25.88
2023-04-20T22:32:51.900Z,17.02
2023-04-20T22:35:37.649Z,17.65
2023-04-20T22:38:23.167Z,17.50
2023-04-20T22:41:08.486Z,17.15
2023-04-20T22:43:53.959Z,15.48
2023-04-20T22:46:39.519Z,19.63
2023-04-20T22:49:24.965Z,21.05
2023-04-20T22:52:11.071Z,14.25
2023-04-20T22:54:56.290Z,21.92
2023-04-20T22:57:41.488Z,16.70
2023-04-20T23:00:26.696Z,17.15
2023-04-20T23:03:12.301Z,15.57
2023-04-20T23:05:58.898Z,15.50
2023-04-20T23:08:45.609Z,24.33
2023-04-20T23:11:30.716Z,17.10
2023-04-20T23:14:16.184Z,16.67
2023-04-20T23:17:01.590Z,18.65
2023-04-20T23:19:47.340Z,26.77
2023-04-20T23:22:32.460Z,23.40
2023-04-20T23:25:17.889Z,14.90
2023-04-20T23:28:03.322Z,21.80
2023-04-20T23:30:48.502Z,15.82
2023-04-20T23:33:33.949Z,17.75
2023-04-20T23:36:19.301Z,18.10
2023-04-20T23:39:05.685Z,21.33
2023-04-20T23:41:51.200Z,16.42
2023-04-20T23:44:36.676Z,20.40
2023-04-20T23:47:22.167Z,20.55
2023-04-20T23:50:08.272Z,16.73
2023-04-20T23:52:56.098Z,25.38
2023-04-20T23:55:41.373Z,14.85
2023-04-20T23:58:28.145Z,19.10
